Weather History for KFKN - January, 2013

Change the Weather History Date:

Friday, January 18, 2013

  Actual Average (KSFQ) Record (KSFQ)
Temperature  
Mean Temperature 36 °F -  
Max Temperature 44 °F 46 °F 71 °F (1990)
Min Temperature 28 °F 29 °F 8 °F (1957)
Degree Days  
Heating Degree Days 29    
Moisture  
Dew Point 30 °F    
Average Humidity 82    
Maximum Humidity 100    
Minimum Humidity 37    
Precipitation  
Precipitation 0.00 in - - ()
Sea Level Pressure  
Sea Level Pressure 30.39 in    
Wind  
Wind Speed 5 mph (NNW)    
Max Wind Speed 12 mph    
Max Gust Speed 21 mph    
Visibility 9 miles    
Events      
Averages and records for this station are not official NWS values.
T = Trace of Precipitation, MM = Missing Value Source: NWS Daily Summary

Daily Weather History Graph

Daily Weather History Graph

Search for Another Location

Airport or City:

Trip Planner

Search our weather history database for the weather conditions in past years. The results will help you decide how hot, cold, wet, or windy it might be!

Date:

Astronomy

Jan. 18, 2013 Rise Set
Actual Time 7:18 AM EST 5:18 PM EST
Civil Twilight 6:50 AM EST 5:46 PM EST
Nautical Twilight 6:18 AM EST 6:18 PM EST
Astronomical Twilight 5:47 AM EST 6:49 PM EST
Moon 11:08 AM EST (1/18) No Moon Set
Length of Visible Light 10h 56m
Length of Day
10h 00m
Waxing Crescent, 47% of the Moon is Illuminated
Jan 18
Waxing Crescent
Jan 18
First Quarter
Jan 26
Full
Feb 3
Last Quarter
Feb 10
New

Hourly Weather History & Observations

Time (EST) Temp. Windchill Dew Point Humidity Pressure Visibility Wind Dir Wind Speed Gust Speed Precip Events Conditions
12:15 AM 33.8 °F 28.6 °F 33.8 °F 100% 30.06 in 7.0 mi North 5.8 mph - N/A   Overcast
12:35 AM 35.6 °F 30.7 °F 35.6 °F 100% 30.08 in 10.0 mi NNW 5.8 mph - N/A   Overcast
12:55 AM 35.6 °F 31.7 °F 35.6 °F 100% 30.09 in 10.0 mi NNW 4.6 mph - N/A   Overcast
1:15 AM 35.6 °F 32.8 °F 35.6 °F 100% 30.11 in 10.0 mi NNW 3.5 mph - N/A   Overcast
1:35 AM 35.6 °F 29.9 °F 35.6 °F 100% 30.14 in 10.0 mi NW 6.9 mph - N/A   Overcast
1:55 AM 35.6 °F 32.8 °F 35.6 °F 100% 30.13 in 5.0 mi NNW 3.5 mph - N/A   Overcast
2:15 AM 35.6 °F 30.7 °F 35.6 °F 100% 30.13 in 10.0 mi NNW 5.8 mph - N/A   Mostly Cloudy
2:35 AM 35.6 °F 31.7 °F 35.6 °F 100% 30.15 in 10.0 mi NW 4.6 mph - N/A   Overcast
2:55 AM 35.6 °F 28.6 °F 35.6 °F 100% 30.18 in 10.0 mi WNW 9.2 mph - N/A   Overcast
3:15 AM 35.6 °F 28.6 °F 35.6 °F 100% 30.20 in 10.0 mi NW 9.2 mph - N/A   Overcast
3:35 AM 35.6 °F 31.7 °F 35.6 °F 100% 30.18 in 5.0 mi NNW 4.6 mph - N/A   Overcast
3:55 AM 35.6 °F 30.7 °F 35.6 °F 100% 30.18 in 4.0 mi NW 5.8 mph - N/A   Overcast
4:15 AM 35.6 °F 30.7 °F 35.6 °F 100% 30.20 in 5.0 mi NW 5.8 mph - N/A   Overcast
4:35 AM 35.6 °F 31.7 °F 35.6 °F 100% 30.21 in 7.0 mi NW 4.6 mph - N/A   Overcast
4:55 AM 35.6 °F 30.7 °F 35.6 °F 100% 30.22 in 7.0 mi NW 5.8 mph - N/A   Overcast
5:15 AM 33.8 °F 29.6 °F 33.8 °F 100% 30.24 in 7.0 mi NW 4.6 mph - N/A   Overcast
5:35 AM 33.8 °F 26.4 °F 33.8 °F 100% 30.25 in 7.0 mi WNW 9.2 mph - N/A   Overcast
5:55 AM 33.8 °F 27.7 °F 33.8 °F 100% 30.27 in 7.0 mi WNW 6.9 mph - N/A   Overcast
6:15 AM 33.8 °F 28.6 °F 33.8 °F 100% 30.28 in 7.0 mi NW 5.8 mph - N/A   Overcast
6:35 AM 33.8 °F 29.6 °F 33.8 °F 100% 30.29 in 7.0 mi WNW 4.6 mph - N/A   Overcast
6:55 AM 33.8 °F 29.6 °F 33.8 °F 100% 30.30 in 7.0 mi WNW 4.6 mph - N/A   Overcast
7:15 AM 33.8 °F 27.7 °F 33.8 °F 100% 30.31 in 5.0 mi WNW 6.9 mph - N/A   Overcast
7:35 AM 33.8 °F 28.6 °F 33.8 °F 100% 30.33 in 5.0 mi WNW 5.8 mph - N/A   Overcast
7:55 AM 33.8 °F 27.0 °F 33.8 °F 100% 30.34 in 5.0 mi WNW 8.1 mph - N/A   Overcast
8:15 AM 33.8 °F 27.0 °F 33.8 °F 100% 30.36 in 7.0 mi NW 8.1 mph - N/A   Mostly Cloudy
8:35 AM 33.8 °F 28.6 °F 33.8 °F 100% 30.38 in 7.0 mi NW 5.8 mph - N/A   Mostly Cloudy
8:55 AM 35.6 °F 30.7 °F 35.6 °F 100% 30.40 in 10.0 mi NW 5.8 mph - N/A   Mostly Cloudy
9:15 AM 35.6 °F 31.7 °F 35.6 °F 100% 30.42 in 10.0 mi NW 4.6 mph - N/A   Scattered Clouds
9:35 AM 37.4 °F 34.9 °F 37.4 °F 100% 30.44 in 10.0 mi NW 3.5 mph - N/A   Clear
9:55 AM 39.2 °F 35.9 °F 37.4 °F 93% 30.45 in 10.0 mi NNW 4.6 mph - N/A   Clear
10:15 AM 39.2 °F 35.9 °F 37.4 °F 93% 30.46 in 10.0 mi NNW 4.6 mph - N/A   Clear
10:35 AM 41.0 °F 35.8 °F 35.6 °F 81% 30.46 in 10.0 mi North 8.1 mph - N/A   Clear
10:55 AM 42.8 °F 39.3 °F 33.8 °F 70% 30.46 in 10.0 mi North 5.8 mph - N/A   Clear
11:15 AM 42.8 °F 36.6 °F 32.0 °F 66% 30.46 in 10.0 mi NNE 11.5 mph 20.7 mph N/A   Clear
11:35 AM 42.8 °F 37.5 °F 33.8 °F 70% 30.46 in 10.0 mi North 9.2 mph - N/A   Clear
11:55 AM 42.8 °F 37.0 °F 32.0 °F 66% 30.46 in 10.0 mi North 10.4 mph 18.4 mph N/A   Clear
12:15 PM 42.8 °F 37.0 °F 30.2 °F 61% 30.45 in 10.0 mi NNE 10.4 mph 17.3 mph N/A   Clear
12:35 PM 44.6 °F 39.7 °F 28.4 °F 53% 30.45 in 10.0 mi North 9.2 mph - N/A   Clear
12:55 PM 44.6 °F 40.2 °F 28.4 °F 53% 30.44 in 10.0 mi NNE 8.1 mph - N/A   Clear
1:15 PM 44.6 °F 39.2 °F 24.8 °F 46% 30.45 in 10.0 mi North 10.4 mph - N/A   Clear
1:35 PM 44.6 °F 40.2 °F 23.0 °F 43% 30.46 in 10.0 mi North 8.1 mph 16.1 mph N/A   Clear
1:55 PM 44.6 °F 40.7 °F 24.8 °F 46% 30.47 in 10.0 mi North 6.9 mph - N/A   Clear
2:15 PM 44.6 °F 40.7 °F 23.0 °F 43% 30.47 in 10.0 mi NNW 6.9 mph - N/A   Clear
2:35 PM 44.6 °F 40.2 °F 21.2 °F 39% 30.47 in 10.0 mi NW 8.1 mph - N/A   Clear
2:55 PM 44.6 °F 40.7 °F 21.2 °F 39% 30.47 in 10.0 mi North 6.9 mph - N/A   Clear
3:15 PM 44.6 °F 42.2 °F 21.2 °F 39% 30.48 in 10.0 mi North 4.6 mph - N/A   Clear
3:35 PM 44.6 °F 41.4 °F 19.4 °F 37% 30.49 in 10.0 mi NNW 5.8 mph - N/A   Clear
3:55 PM 44.6 °F 40.7 °F 19.4 °F 37% 30.49 in 10.0 mi North 6.9 mph - N/A   Clear
4:15 PM 42.8 °F 38.0 °F 19.4 °F 39% 30.50 in 10.0 mi North 8.1 mph - N/A   Clear
4:35 PM 42.8 °F 41.1 °F 21.2 °F 42% 30.50 in 10.0 mi NNW 3.5 mph - N/A   Clear
4:55 PM 41.0 °F 38.0 °F 21.2 °F 45% 30.51 in 10.0 mi North 4.6 mph - N/A   Clear
5:15 PM 39.2 °F 37.0 °F 21.2 °F 49% 30.52 in 10.0 mi North 3.5 mph - N/A   Clear
5:35 PM 37.4 °F 34.9 °F 23.0 °F 56% 30.52 in 10.0 mi North 3.5 mph - N/A   Clear
5:55 PM 35.6 °F - 23.0 °F 60% 30.53 in 10.0 mi Calm Calm - N/A   Clear
6:15 PM 35.6 °F - 26.6 °F 70% 30.54 in 10.0 mi Calm Calm - N/A   Clear
6:35 PM 32.0 °F - 28.4 °F 87% 30.55 in 10.0 mi Calm Calm - N/A   Clear
6:55 PM 32.0 °F - 28.4 °F 87% 30.55 in 10.0 mi Calm Calm - N/A   Clear
7:15 PM 32.0 °F - 28.4 °F 87% 30.55 in 10.0 mi Calm Calm - N/A   Clear
7:35 PM 30.2 °F - 28.4 °F 93% 30.54 in 10.0 mi Calm Calm - N/A   Clear
7:55 PM 30.2 °F - 28.4 °F 93% 30.55 in 10.0 mi Calm Calm - N/A   Clear
8:15 PM 30.2 °F - 28.4 °F 93% 30.55 in 10.0 mi Calm Calm - N/A   Clear
8:35 PM 30.2 °F - 28.4 °F 93% 30.55 in 10.0 mi Calm Calm - N/A   Clear
8:55 PM 30.2 °F - 28.4 °F 93% 30.55 in 10.0 mi Calm Calm - N/A   Clear
9:15 PM 28.4 °F - 28.4 °F 100% 30.55 in 10.0 mi Calm Calm - N/A   Clear
9:35 PM 28.4 °F - 28.4 °F 100% 30.54 in 10.0 mi Calm Calm - N/A   Clear
10:15 PM 28.4 °F - 28.4 °F 100% 30.55 in 10.0 mi Calm Calm - N/A   Clear
10:35 PM 28.4 °F - 28.4 °F 100% 30.55 in 10.0 mi Calm Calm - N/A   Clear
11:15 PM 28.4 °F - 28.4 °F 100% 30.53 in 10.0 mi Calm Calm - N/A   Clear
11:35 PM 28.4 °F - 28.4 °F 100% 30.52 in 10.0 mi Calm Calm - N/A   Clear
11:55 PM 28.4 °F - 28.4 °F 100% 30.52 in 10.0 mi Calm Calm - N/A   Clear